createdAt,value
2023-07-29T00:00:17.578Z,5.21429
2023-07-29T00:01:17.585Z,5.85714
2023-07-29T00:02:17.621Z,5.14286
2023-07-29T00:03:17.748Z,5.14286
2023-07-29T00:04:17.610Z,5.5
2023-07-29T00:05:17.620Z,5
2023-07-29T00:06:17.649Z,4.71429
2023-07-29T00:07:17.676Z,5.5
2023-07-29T00:08:17.707Z,5.21429
2023-07-29T00:09:17.726Z,5.85714
2023-07-29T00:10:17.753Z,4.71429
2023-07-29T00:11:17.789Z,4.64286
2023-07-29T00:12:17.794Z,4.92857
2023-07-29T00:13:18.533Z,4.92857
2023-07-29T00:14:17.841Z,5.5
2023-07-29T00:15:17.860Z,5.64286
2023-07-29T00:16:17.918Z,5.35714
2023-07-29T00:17:17.895Z,6.14286
2023-07-29T00:18:17.902Z,5.14286
2023-07-29T00:19:17.917Z,4.92857
2023-07-29T00:20:17.952Z,5.5
2023-07-29T00:21:17.944Z,5.21429
2023-07-29T00:22:17.982Z,5.35714
2023-07-29T00:23:17.971Z,5.85714
2023-07-29T00:24:17.973Z,5.42857
2023-07-29T00:25:17.978Z,5.64286
2023-07-29T00:26:17.989Z,5.71429
2023-07-29T00:27:18.049Z,5.64286
2023-07-29T00:28:19.309Z,5.42857
2023-07-29T00:29:18.077Z,4.5
2023-07-29T00:30:17.125Z,4.71429
2023-07-29T00:31:17.186Z,5.14286
2023-07-29T00:32:17.194Z,5
2023-07-29T00:33:17.186Z,4.92857
2023-07-29T00:34:17.184Z,5.14286
2023-07-29T00:35:17.215Z,4.92857
2023-07-29T00:36:17.232Z,5
2023-07-29T00:37:17.261Z,5.21429
2023-07-29T00:38:17.283Z,4.85714
2023-07-29T00:39:17.303Z,4.71429
2023-07-29T00:40:17.382Z,4.85714
2023-07-29T00:41:17.340Z,5.14286
2023-07-29T00:42:17.355Z,4.64286
2023-07-29T00:43:17.379Z,4.35714
2023-07-29T00:44:17.377Z,5.14286
2023-07-29T00:45:17.411Z,5
2023-07-29T00:46:17.419Z,4.35714
2023-07-29T00:47:17.406Z,5.64286
2023-07-29T00:48:17.486Z,4.64286
2023-07-29T00:49:17.408Z,5.21429
2023-07-29T00:50:17.443Z,5.21429
2023-07-29T00:51:17.458Z,4.5
2023-07-29T00:52:17.512Z,5.35714
2023-07-29T00:53:17.524Z,5.5
2023-07-29T00:54:17.547Z,7.71429
2023-07-29T00:55:17.598Z,4.92857
2023-07-29T00:56:17.590Z,5.92857
2023-07-29T00:57:17.624Z,5
2023-07-29T00:58:17.628Z,5.14286
2023-07-29T00:59:17.662Z,4.42857
2023-07-29T01:00:17.691Z,4.64286
2023-07-29T01:01:17.740Z,5.92857
2023-07-29T01:02:17.755Z,4.92857
2023-07-29T01:03:17.805Z,4.71429
2023-07-29T01:04:17.777Z,4.92857
2023-07-29T01:05:17.818Z,4.42857
2023-07-29T01:06:17.784Z,5.92857
2023-07-29T01:07:17.825Z,5.42857
2023-07-29T01:08:17.818Z,5.71429
2023-07-29T01:09:17.811Z,4.21429
2023-07-29T01:10:17.816Z,5.85714
2023-07-29T01:11:17.838Z,4.42857
2023-07-29T01:12:17.869Z,5.71429
2023-07-29T01:13:17.872Z,5.71429
2023-07-29T01:14:17.899Z,5.35714
2023-07-29T01:15:20.322Z,4.71429
2023-07-29T01:16:18.013Z,5
2023-07-29T01:17:17.974Z,5.71429
2023-07-29T01:18:18.011Z,5.71429
2023-07-29T01:19:18.014Z,5
2023-07-29T01:20:18.052Z,5
2023-07-29T01:21:18.068Z,5.35714
2023-07-29T01:22:18.092Z,4.92857
2023-07-29T01:23:17.142Z,5.71429
2023-07-29T01:24:17.121Z,5.64286
2023-07-29T01:25:17.123Z,5.5
2023-07-29T01:26:17.149Z,6.14286
2023-07-29T01:27:17.160Z,5.5
2023-07-29T01:28:17.213Z,6.35714
2023-07-29T01:29:17.170Z,6.92857
2023-07-29T01:30:18.299Z,5.14286
2023-07-29T01:31:17.214Z,5.5
2023-07-29T01:32:17.222Z,5.21429
2023-07-29T01:33:17.228Z,4.35714
2023-07-29T01:34:17.255Z,5.14286
2023-07-29T01:35:17.284Z,5.71429
2023-07-29T01:36:17.311Z,6.85714
2023-07-29T01:37:17.341Z,5.5
2023-07-29T01:38:17.354Z,5.5
2023-07-29T01:39:17.394Z,6.21429
2023-07-29T01:40:17.410Z,5.14286
2023-07-29T01:41:17.427Z,5.64286
2023-07-29T01:42:17.449Z,5.35714
2023-07-29T01:43:17.462Z,5.35714
2023-07-29T01:44:17.496Z,5.5
2023-07-29T01:45:17.510Z,7
2023-07-29T01:46:17.606Z,5.92857
2023-07-29T01:47:17.564Z,5.64286
2023-07-29T01:48:17.568Z,5.5
2023-07-29T01:49:17.589Z,5.92857
2023-07-29T01:50:17.592Z,6.35714
2023-07-29T01:51:17.600Z,5.92857
2023-07-29T01:52:17.604Z,5.85714
2023-07-29T01:53:17.600Z,6.92857
2023-07-29T01:54:17.643Z,7
2023-07-29T01:55:17.710Z,6.5
2023-07-29T01:56:17.699Z,6.14286
2023-07-29T01:57:17.718Z,6.35714
2023-07-29T01:58:17.741Z,6.21429
2023-07-29T01:59:17.775Z,6
2023-07-29T02:00:17.805Z,6.35714
2023-07-29T02:01:17.855Z,6.71429
2023-07-29T02:02:17.836Z,6.14286
2023-07-29T02:03:17.866Z,6
2023-07-29T02:04:17.987Z,6.21429
2023-07-29T02:05:17.918Z,6.14286
2023-07-29T02:06:17.927Z,6.21429
2023-07-29T02:07:17.952Z,6.5
2023-07-29T02:08:17.987Z,6.14286
2023-07-29T02:09:17.978Z,6.14286
2023-07-29T02:10:17.998Z,5.92857
2023-07-29T02:11:18.025Z,5.5
2023-07-29T02:12:18.035Z,6.92857
2023-07-29T02:13:18.046Z,5.42857
2023-07-29T02:14:18.055Z,5.64286
2023-07-29T02:15:18.084Z,5.5
2023-07-29T02:16:18.101Z,5.64286
2023-07-29T02:17:17.092Z,5.64286
2023-07-29T02:18:17.118Z,5.35714
2023-07-29T02:19:17.142Z,5
2023-07-29T02:20:17.172Z,6.14286
2023-07-29T02:21:17.214Z,5.85714
2023-07-29T02:22:17.211Z,6.14286
2023-07-29T02:23:17.250Z,5.64286
2023-07-29T02:24:17.271Z,5.85714
2023-07-29T02:25:17.298Z,5.85714
2023-07-29T02:26:17.324Z,6.35714
2023-07-29T02:27:17.340Z,5.92857
2023-07-29T02:28:17.404Z,6.64286
2023-07-29T02:29:17.377Z,6.5
2023-07-29T02:30:17.404Z,5.92857
2023-07-29T02:31:17.501Z,6.92857
2023-07-29T02:32:17.473Z,5.64286
2023-07-29T02:33:17.496Z,6
2023-07-29T02:34:17.475Z,6.42857
2023-07-29T02:35:17.488Z,6.71429
2023-07-29T02:36:17.510Z,5.21429
2023-07-29T02:37:17.526Z,5.35714
2023-07-29T02:38:17.520Z,5.42857
2023-07-29T02:39:17.522Z,6.71429
2023-07-29T02:40:17.530Z,6
2023-07-29T02:41:17.588Z,5.21429
2023-07-29T02:42:17.674Z,5.42857
2023-07-29T02:43:17.600Z,6.35714
2023-07-29T02:44:17.634Z,5.21429
2023-07-29T02:45:17.650Z,5.64286
2023-07-29T02:46:17.708Z,7.35714
2023-07-29T02:47:17.734Z,5.14286
2023-07-29T02:48:17.729Z,6.14286
2023-07-29T02:49:17.756Z,6
2023-07-29T02:50:17.797Z,5.21429
2023-07-29T02:51:17.794Z,5.64286
2023-07-29T02:52:17.823Z,4.92857
2023-07-29T02:53:17.845Z,8
2023-07-29T02:54:17.880Z,6.71429
2023-07-29T02:55:17.851Z,4.85714
2023-07-29T02:56:17.887Z,6.21429
2023-07-29T02:57:17.917Z,5.64286
2023-07-29T02:58:17.910Z,5.21429
2023-07-29T02:59:17.928Z,5.35714
2023-07-29T03:00:17.938Z,5.14286
2023-07-29T03:01:17.957Z,5.21429
2023-07-29T03:02:17.970Z,6.14286
2023-07-29T03:03:18.026Z,4.85714
2023-07-29T03:04:17.966Z,4.92857
2023-07-29T03:05:18.000Z,5.21429
2023-07-29T03:06:18.022Z,5.14286
2023-07-29T03:07:18.070Z,5.42857
2023-07-29T03:08:18.067Z,6.14286
2023-07-29T03:09:17.105Z,5.64286
2023-07-29T03:10:17.145Z,6
2023-07-29T03:11:17.152Z,5.85714
2023-07-29T03:12:17.179Z,6.21429
2023-07-29T03:13:17.203Z,4.64286
2023-07-29T03:14:17.240Z,4.85714
2023-07-29T03:15:17.262Z,6.14286
2023-07-29T03:16:17.355Z,7.14286
2023-07-29T03:17:17.306Z,4.92857
2023-07-29T03:18:17.315Z,5.21429
2023-07-29T03:19:17.340Z,5.42857
2023-07-29T03:20:17.356Z,5.71429
2023-07-29T03:21:17.392Z,6
2023-07-29T03:22:17.386Z,5.5
2023-07-29T03:23:17.385Z,6.14286
2023-07-29T03:24:17.384Z,5
2023-07-29T03:25:17.418Z,4.92857
2023-07-29T03:26:17.407Z,5.92857
2023-07-29T03:27:17.438Z,5.42857
2023-07-29T03:28:17.477Z,5.85714
2023-07-29T03:29:17.460Z,6.5
2023-07-29T03:30:17.506Z,5.85714
2023-07-29T03:31:17.590Z,5.14286
2023-07-29T03:32:17.559Z,5.92857
2023-07-29T03:33:17.577Z,5.71429
2023-07-29T03:34:17.612Z,5.14286
2023-07-29T03:35:17.680Z,5
2023-07-29T03:36:17.643Z,6.64286
2023-07-29T03:37:17.667Z,5.85714
2023-07-29T03:38:17.670Z,5.35714
2023-07-29T03:39:17.691Z,6.21429
2023-07-29T03:40:17.722Z,5.64286
2023-07-29T03:41:17.752Z,5
2023-07-29T03:42:17.739Z,5.35714
2023-07-29T03:43:17.752Z,5.14286
2023-07-29T03:44:17.782Z,5.85714
2023-07-29T03:45:17.775Z,5.35714
2023-07-29T03:46:17.834Z,5
2023-07-29T03:47:17.778Z,4.5
2023-07-29T03:48:17.812Z,5.71429
2023-07-29T03:49:17.828Z,5.21429
2023-07-29T03:50:17.863Z,8.71429
2023-07-29T03:51:17.873Z,5
2023-07-29T03:52:17.917Z,7.5
2023-07-29T03:53:17.916Z,4.42857
2023-07-29T03:54:17.944Z,5.35714
2023-07-29T03:55:17.958Z,6
2023-07-29T03:56:17.967Z,5.42857
2023-07-29T03:57:18.027Z,4.92857
2023-07-29T03:58:18.023Z,5.92857
2023-07-29T03:59:18.033Z,6.14286
2023-07-29T04:00:18.049Z,5.42857
2023-07-29T04:01:18.101Z,5.21429
2023-07-29T04:02:18.085Z,5.92857
2023-07-29T04:03:18.170Z,5.92857
2023-07-29T04:04:17.167Z,5.35714
2023-07-29T04:05:17.103Z,4.92857
2023-07-29T04:06:17.111Z,5.5
2023-07-29T04:07:17.117Z,5.64286
2023-07-29T04:08:17.144Z,5.21429
2023-07-29T04:09:17.158Z,5.92857
2023-07-29T04:10:17.180Z,7.71429
2023-07-29T04:11:17.213Z,6.5
2023-07-29T04:12:17.233Z,6.21429
2023-07-29T04:13:17.256Z,6.14286
2023-07-29T04:14:17.299Z,6.42857
2023-07-29T04:15:17.314Z,6
2023-07-29T04:16:17.352Z,6.64286
2023-07-29T04:17:17.377Z,6.85714
2023-07-29T04:18:17.390Z,7
2023-07-29T04:19:17.405Z,7.35714
2023-07-29T04:20:17.428Z,7.64286
2023-07-29T04:21:17.457Z,7.35714
2023-07-29T04:22:17.505Z,7.21429
2023-07-29T04:23:17.491Z,9.14286
2023-07-29T04:24:17.509Z,8.85714
2023-07-29T04:25:17.530Z,7.5
2023-07-29T04:26:17.543Z,7.42857
2023-07-29T04:27:17.577Z,7.42857
2023-07-29T04:28:17.590Z,7.14286
2023-07-29T04:29:17.582Z,7.42857
2023-07-29T04:30:17.584Z,7.64286
2023-07-29T04:31:17.653Z,8
2023-07-29T04:32:17.616Z,9.21429
2023-07-29T04:33:17.625Z,8.14286
2023-07-29T04:34:17.645Z,7.92857
2023-07-29T04:35:17.676Z,7.64286
2023-07-29T04:36:17.698Z,7.85714
2023-07-29T04:37:17.717Z,7.35714
2023-07-29T04:38:17.745Z,7.21429
2023-07-29T04:39:17.816Z,7.64286
2023-07-29T04:40:17.797Z,8.42857
2023-07-29T04:41:17.818Z,8.42857
2023-07-29T04:42:17.832Z,7.71429
2023-07-29T04:43:17.855Z,8.21429
2023-07-29T04:44:17.863Z,7.92857
2023-07-29T04:45:17.876Z,7.42857
2023-07-29T04:46:17.947Z,8.5
2023-07-29T04:47:17.902Z,8
2023-07-29T04:48:17.916Z,8.42857
2023-07-29T04:49:17.920Z,8.21429
2023-07-29T04:50:17.940Z,8
2023-07-29T04:51:17.932Z,7.21429
2023-07-29T04:52:17.974Z,7
2023-07-29T04:53:17.979Z,8.14286
2023-07-29T04:54:18.021Z,7.85714
2023-07-29T04:55:18.023Z,8.14286
2023-07-29T04:56:18.938Z,7.85714
2023-07-29T04:57:18.108Z,8.21429
2023-07-29T04:58:17.102Z,7.92857
2023-07-29T04:59:17.112Z,7.71429
2023-07-29T05:00:17.153Z,7.85714
2023-07-29T05:01:17.169Z,7.42857
2023-07-29T05:02:17.176Z,8
2023-07-29T05:03:17.224Z,7.85714
2023-07-29T05:04:17.267Z,7.42857
2023-07-29T05:05:17.257Z,7.85714
2023-07-29T05:06:17.267Z,8.21429
2023-07-29T05:07:17.281Z,7.35714
2023-07-29T05:08:17.293Z,7.42857
2023-07-29T05:09:17.343Z,7.71429
2023-07-29T05:10:17.324Z,7.64286
2023-07-29T05:11:17.336Z,7.92857
2023-07-29T05:12:17.339Z,7.85714
2023-07-29T05:13:17.357Z,7.21429
2023-07-29T05:14:17.385Z,7.71429
2023-07-29T05:15:17.384Z,7.5
2023-07-29T05:16:17.427Z,7.85714
2023-07-29T05:17:17.512Z,7.35714
2023-07-29T05:18:17.455Z,7.92857
2023-07-29T05:19:17.475Z,7.21429
2023-07-29T05:20:17.518Z,8
2023-07-29T05:21:17.550Z,7.85714
2023-07-29T05:22:17.562Z,8
2023-07-29T05:23:17.580Z,7.14286
2023-07-29T05:24:17.606Z,7.42857
2023-07-29T05:25:17.635Z,7.71429
2023-07-29T05:26:17.662Z,7
2023-07-29T05:27:17.674Z,7.21429
2023-07-29T05:28:17.747Z,7.21429
2023-07-29T05:29:17.720Z,7.64286
2023-07-29T05:30:17.739Z,7.21429
2023-07-29T05:31:17.753Z,7.14286
2023-07-29T05:32:17.791Z,6.92857
2023-07-29T05:33:17.857Z,6.85714
2023-07-29T05:34:17.791Z,7.92857
2023-07-29T05:35:17.799Z,7.42857
2023-07-29T05:36:17.811Z,7.71429
2023-07-29T05:37:17.838Z,7.92857
2023-07-29T05:38:17.822Z,7.35714
2023-07-29T05:39:17.818Z,7.14286
2023-07-29T05:40:17.850Z,7.5
2023-07-29T05:41:17.870Z,6.92857
2023-07-29T05:42:17.897Z,7.14286
2023-07-29T05:43:17.944Z,8
2023-07-29T05:44:17.931Z,7.5
2023-07-29T05:45:17.964Z,7.14286
2023-07-29T05:46:18.016Z,7.5
2023-07-29T05:47:17.998Z,7.71429
2023-07-29T05:48:18.037Z,7.71429
2023-07-29T05:49:18.074Z,7.5
2023-07-29T05:50:18.065Z,7.5
2023-07-29T05:51:18.082Z,7.21429
2023-07-29T05:52:17.107Z,7
2023-07-29T05:53:17.129Z,7
2023-07-29T05:54:17.147Z,7.5
2023-07-29T05:55:17.163Z,7.35714
2023-07-29T05:56:17.171Z,7
2023-07-29T05:57:17.174Z,6.64286
2023-07-29T05:58:17.191Z,7.42857
2023-07-29T05:59:17.193Z,7.21429
2023-07-29T06:00:17.213Z,7.85714
2023-07-29T06:01:17.227Z,7.14286
2023-07-29T06:02:17.270Z,7.14286
2023-07-29T06:03:17.432Z,6.71429
2023-07-29T06:04:17.290Z,6.92857
2023-07-29T06:05:17.338Z,6.5
2023-07-29T06:06:17.351Z,6.35714
2023-07-29T06:07:17.379Z,6.14286
2023-07-29T06:08:17.381Z,7
2023-07-29T06:09:17.403Z,7
2023-07-29T06:10:17.430Z,6.5
2023-07-29T06:11:17.450Z,6.71429
2023-07-29T06:12:17.489Z,5.92857
2023-07-29T06:13:17.507Z,6.14286
2023-07-29T06:14:17.529Z,6.14286
2023-07-29T06:15:17.593Z,5.71429
2023-07-29T06:16:17.607Z,5.92857
2023-07-29T06:17:17.635Z,5.42857
2023-07-29T06:18:17.589Z,5.71429
2023-07-29T06:19:17.816Z,5.35714
2023-07-29T06:20:17.630Z,5.64286
2023-07-29T06:21:17.627Z,5.5
2023-07-29T06:22:17.628Z,5.35714
2023-07-29T06:23:17.672Z,5.5
2023-07-29T06:24:17.647Z,5.14286
2023-07-29T06:25:17.663Z,4.92857
2023-07-29T06:26:17.675Z,5.71429
2023-07-29T06:27:17.714Z,5.21429
2023-07-29T06:28:17.774Z,5.14286
2023-07-29T06:29:17.785Z,5
2023-07-29T06:30:17.786Z,5
2023-07-29T06:31:17.899Z,5
2023-07-29T06:32:17.837Z,4.64286
2023-07-29T06:33:17.862Z,4.64286
2023-07-29T06:34:17.904Z,4.85714
2023-07-29T06:35:17.940Z,4.42857
2023-07-29T06:36:17.942Z,6.85714
2023-07-29T06:37:17.987Z,4.5
2023-07-29T06:38:18.000Z,4.64286
2023-07-29T06:39:18.040Z,4.64286
2023-07-29T06:40:18.044Z,4.42857
2023-07-29T06:41:19.593Z,4.42857
2023-07-29T06:42:18.095Z,4.92857
2023-07-29T06:43:17.111Z,4
2023-07-29T06:44:17.140Z,4.5
2023-07-29T06:45:17.143Z,5
2023-07-29T06:46:17.168Z,4.5
2023-07-29T06:47:17.225Z,4.85714
2023-07-29T06:48:17.198Z,5.14286
2023-07-29T06:49:17.204Z,4.5
2023-07-29T06:50:17.218Z,5.14286
2023-07-29T06:51:17.224Z,4.92857
2023-07-29T06:52:17.251Z,4.85714
2023-07-29T06:53:17.249Z,4.42857
2023-07-29T06:54:17.250Z,4.71429
2023-07-29T06:55:17.281Z,4.5
2023-07-29T06:56:17.287Z,4
2023-07-29T06:57:17.315Z,4.64286
2023-07-29T06:58:17.344Z,4.64286
2023-07-29T06:59:17.359Z,4.64286
2023-07-29T07:00:17.392Z,4.85714
2023-07-29T07:01:17.466Z,4.85714
2023-07-29T07:02:17.434Z,4.42857
2023-07-29T07:03:17.506Z,4.35714
2023-07-29T07:04:17.485Z,4.71429
2023-07-29T07:05:17.529Z,4.85714
2023-07-29T07:06:17.537Z,4.92857
2023-07-29T07:07:17.580Z,4.85714
2023-07-29T07:08:17.572Z,4.92857
2023-07-29T07:09:17.601Z,4.71429
2023-07-29T07:10:17.617Z,5.14286
2023-07-29T07:11:17.622Z,4.64286
2023-07-29T07:12:17.654Z,4.85714
2023-07-29T07:13:17.656Z,4.85714
2023-07-29T07:14:17.666Z,4.64286
2023-07-29T07:15:17.680Z,4.35714
2023-07-29T07:16:17.756Z,4.35714
2023-07-29T07:17:17.722Z,5
2023-07-29T07:18:17.706Z,4.35714
2023-07-29T07:19:17.712Z,3.92857
2023-07-29T07:20:17.737Z,3.85714
2023-07-29T07:21:17.794Z,3.85714
2023-07-29T07:22:17.804Z,6.71429
2023-07-29T07:23:17.816Z,4.14286
2023-07-29T07:24:17.867Z,4
2023-07-29T07:25:17.874Z,4.14286
2023-07-29T07:26:17.914Z,4.35714
2023-07-29T07:27:17.898Z,4
2023-07-29T07:28:17.965Z,4.42857
2023-07-29T07:29:17.952Z,4.14286
2023-07-29T07:30:17.993Z,4
2023-07-29T07:31:20.571Z,4
2023-07-29T07:32:18.042Z,3.92857
2023-07-29T07:33:18.038Z,3.85714
2023-07-29T07:34:18.050Z,3.92857
2023-07-29T07:35:18.068Z,3.5
2023-07-29T07:36:18.077Z,3.92857
2023-07-29T07:37:18.086Z,3.92857
2023-07-29T07:38:17.107Z,3.64286
2023-07-29T07:39:17.123Z,3.5
2023-07-29T07:40:17.119Z,3.64286
2023-07-29T07:41:17.126Z,3.5
2023-07-29T07:42:17.121Z,3.71429
2023-07-29T07:43:17.143Z,3.71429
2023-07-29T07:44:17.175Z,3.85714
2023-07-29T07:45:17.200Z,3.64286
2023-07-29T07:46:17.266Z,3.71429
2023-07-29T07:47:17.256Z,3.85714
2023-07-29T07:48:17.277Z,3.42857
2023-07-29T07:49:17.301Z,3.71429
2023-07-29T07:50:17.328Z,4.35714
2023-07-29T07:51:17.343Z,3.21429
2023-07-29T07:52:17.389Z,3.64286
2023-07-29T07:53:17.380Z,3.64286
2023-07-29T07:54:17.413Z,3.64286
2023-07-29T07:55:17.434Z,3.85714
2023-07-29T07:56:17.455Z,4
2023-07-29T07:57:17.485Z,3.5
2023-07-29T07:58:17.483Z,3.71429
2023-07-29T07:59:18.234Z,3.64286
2023-07-29T08:00:17.518Z,3.5
2023-07-29T08:01:17.528Z,3.92857
2023-07-29T08:02:17.537Z,3.42857
2023-07-29T08:03:17.577Z,3.85714
2023-07-29T08:04:17.569Z,3.85714
2023-07-29T08:05:17.565Z,3.92857
2023-07-29T08:06:17.575Z,3.92857
2023-07-29T08:07:17.583Z,3.85714
2023-07-29T08:08:17.609Z,4.21429
2023-07-29T08:09:17.636Z,5.64286
2023-07-29T08:10:17.672Z,4
2023-07-29T08:11:17.677Z,3.85714
2023-07-29T08:12:20.024Z,4
2023-07-29T08:13:17.754Z,3.92857
2023-07-29T08:14:17.764Z,3.71429
2023-07-29T08:15:17.811Z,3.64286
2023-07-29T08:16:17.835Z,3.85714
2023-07-29T08:17:17.879Z,3.92857
2023-07-29T08:18:17.861Z,3.92857
2023-07-29T08:19:18.314Z,3.64286
2023-07-29T08:20:17.899Z,3.71429
2023-07-29T08:21:17.893Z,3.71429
2023-07-29T08:22:17.928Z,3.85714
2023-07-29T08:23:17.947Z,3.92857
2023-07-29T08:24:17.939Z,3.92857
2023-07-29T08:25:17.949Z,4.42857
2023-07-29T08:26:17.949Z,3.85714
2023-07-29T08:27:17.958Z,3.64286
2023-07-29T08:28:18.016Z,4.64286
2023-07-29T08:29:18.011Z,3.64286
2023-07-29T08:30:18.037Z,3.71429
2023-07-29T08:31:18.098Z,4.35714
2023-07-29T08:32:18.082Z,4.42857
2023-07-29T08:33:17.137Z,3.64286
2023-07-29T08:34:17.200Z,3.35714
2023-07-29T08:35:17.182Z,4.21429
2023-07-29T08:36:17.188Z,4.14286
2023-07-29T08:37:17.202Z,4.42857
2023-07-29T08:38:17.215Z,4.21429
2023-07-29T08:39:17.256Z,3.64286
2023-07-29T08:40:17.275Z,5.14286
2023-07-29T08:41:17.307Z,3.42857
2023-07-29T08:42:17.329Z,3.64286
2023-07-29T08:43:17.326Z,3.64286
2023-07-29T08:44:17.350Z,3.5
2023-07-29T08:45:17.364Z,3.71429
2023-07-29T08:46:17.453Z,3.64286
2023-07-29T08:47:17.438Z,3.5
2023-07-29T08:48:17.381Z,3.85714
2023-07-29T08:49:17.387Z,3.64286
2023-07-29T08:50:17.406Z,3.21429
2023-07-29T08:51:17.432Z,3.5
2023-07-29T08:52:17.501Z,3.5
2023-07-29T08:53:17.472Z,3.5
2023-07-29T08:54:17.511Z,3.92857
2023-07-29T08:55:17.519Z,5.64286
2023-07-29T08:56:17.537Z,4.71429
2023-07-29T08:57:17.563Z,3.85714
2023-07-29T08:58:17.576Z,3.92857
2023-07-29T08:59:17.622Z,3.5
2023-07-29T09:00:20.828Z,3.71429
2023-07-29T09:01:17.648Z,3.5
2023-07-29T09:02:17.757Z,3.71429
2023-07-29T09:03:17.753Z,3.64286
2023-07-29T09:04:17.694Z,4
2023-07-29T09:05:17.673Z,3.85714
2023-07-29T09:06:17.686Z,3.71429
2023-07-29T09:07:17.685Z,3.92857
2023-07-29T09:08:17.694Z,3.71429
2023-07-29T09:09:17.721Z,3.85714
2023-07-29T09:10:17.746Z,3.71429
2023-07-29T09:11:17.771Z,3.71429
2023-07-29T09:12:17.800Z,3.64286
2023-07-29T09:13:17.829Z,3.64286
2023-07-29T09:14:17.851Z,3.64286
2023-07-29T09:15:17.873Z,3.64286
2023-07-29T09:16:17.912Z,4.21429
2023-07-29T09:17:17.982Z,3.64286
2023-07-29T09:18:17.968Z,3.42857
2023-07-29T09:19:17.952Z,4.42857
2023-07-29T09:20:17.981Z,3.71429
2023-07-29T09:21:18.011Z,3.71429
2023-07-29T09:22:18.033Z,4.85714
2023-07-29T09:23:18.072Z,4.64286
2023-07-29T09:24:18.066Z,3.64286
2023-07-29T09:25:18.109Z,3.71429
2023-07-29T09:26:18.090Z,4.14286
2023-07-29T09:27:18.098Z,3.64286
2023-07-29T09:28:18.195Z,3.64286
2023-07-29T09:29:18.113Z,3.92857
2023-07-29T09:30:18.131Z,3.71429
2023-07-29T09:31:18.185Z,3.64286
2023-07-29T09:32:18.164Z,3.64286
2023-07-29T09:33:18.184Z,4.14286
2023-07-29T09:34:18.205Z,3.64286
2023-07-29T09:35:18.224Z,3.85714
2023-07-29T09:36:18.280Z,3.5
2023-07-29T09:37:18.288Z,3.71429
2023-07-29T09:38:18.298Z,3.5
2023-07-29T09:39:18.321Z,3.5
2023-07-29T09:40:18.358Z,3.85714
2023-07-29T09:41:18.367Z,3.85714
2023-07-29T09:42:18.453Z,3.64286
2023-07-29T09:43:18.398Z,3.14286
2023-07-29T09:44:18.464Z,3.85714
2023-07-29T09:45:18.437Z,3.42857
2023-07-29T09:46:18.541Z,3.64286
2023-07-29T09:47:18.504Z,3.35714
2023-07-29T09:48:18.511Z,3.71429
2023-07-29T09:49:18.499Z,3.85714
2023-07-29T09:50:18.510Z,3.42857
2023-07-29T09:51:18.528Z,3.21429
2023-07-29T09:52:18.540Z,3.35714
2023-07-29T09:53:18.531Z,3.42857
2023-07-29T09:54:18.561Z,3.42857
2023-07-29T09:55:18.598Z,3.35714
2023-07-29T09:56:18.624Z,3.5
2023-07-29T09:57:18.650Z,3.5
2023-07-29T09:58:18.673Z,3.64286
2023-07-29T09:59:18.691Z,3.64286
2023-07-29T10:00:18.755Z,3.64286
2023-07-29T10:01:18.763Z,3.35714
2023-07-29T10:02:18.787Z,3.42857
2023-07-29T10:03:18.948Z,3.42857
2023-07-29T10:04:18.818Z,3.64286
2023-07-29T10:05:18.826Z,3.71429
2023-07-29T10:06:18.824Z,3.92857
2023-07-29T10:07:18.851Z,3.71429
2023-07-29T10:08:18.859Z,3.42857
2023-07-29T10:09:18.869Z,3.42857
2023-07-29T10:10:18.901Z,3.64286
2023-07-29T10:11:18.875Z,3.64286
2023-07-29T10:12:19.236Z,3.71429
2023-07-29T10:13:18.891Z,3.92857
2023-07-29T10:14:18.905Z,3.5
2023-07-29T10:15:18.956Z,3.42857
2023-07-29T10:16:19.041Z,3.71429
2023-07-29T10:17:19.011Z,3.42857
2023-07-29T10:18:19.018Z,4
2023-07-29T10:19:19.031Z,3.5
2023-07-29T10:20:19.066Z,5.14286
2023-07-29T10:21:19.092Z,3.64286
2023-07-29T10:22:18.107Z,5.92857
2023-07-29T10:23:18.163Z,3.71429
2023-07-29T10:24:18.162Z,4.35714
2023-07-29T10:25:18.188Z,4.21429
2023-07-29T10:26:18.205Z,4.5
2023-07-29T10:27:18.229Z,4.85714
2023-07-29T10:28:18.273Z,4
2023-07-29T10:29:18.328Z,4.35714
2023-07-29T10:30:18.272Z,4.42857
2023-07-29T10:31:18.303Z,4.42857
2023-07-29T10:32:18.323Z,4.35714
2023-07-29T10:33:18.427Z,4.35714
2023-07-29T10:34:18.343Z,4.21429
2023-07-29T10:35:18.336Z,3.71429
2023-07-29T10:36:19.190Z,4
2023-07-29T10:37:18.364Z,4
2023-07-29T10:38:18.360Z,4.42857
2023-07-29T10:39:18.403Z,4.14286
2023-07-29T10:40:18.412Z,4.14286
2023-07-29T10:41:18.431Z,7.92857
2023-07-29T10:42:18.487Z,5.14286
2023-07-29T10:43:18.476Z,5.85714
2023-07-29T10:44:18.521Z,5.35714
2023-07-29T10:45:18.522Z,4.14286
2023-07-29T10:46:18.632Z,4.64286
2023-07-29T10:47:18.611Z,3.71429
2023-07-29T10:48:18.587Z,4
2023-07-29T10:49:18.591Z,5.5
2023-07-29T10:50:18.615Z,5.64286
2023-07-29T10:51:18.632Z,5.85714
2023-07-29T10:52:18.661Z,5.42857
2023-07-29T10:53:18.669Z,8.64286
2023-07-29T10:54:18.686Z,9.85714
2023-07-29T10:55:18.705Z,9.21429
2023-07-29T10:56:18.724Z,7.21429
2023-07-29T10:57:18.720Z,9.92857
2023-07-29T10:58:18.935Z,7.92857
2023-07-29T10:59:18.833Z,6.85714
2023-07-29T11:00:18.752Z,5.85714
2023-07-29T11:01:18.832Z,4.92857
2023-07-29T11:02:18.805Z,5
2023-07-29T11:03:18.829Z,5.21429
2023-07-29T11:04:18.901Z,5.71429
2023-07-29T11:05:19.051Z,4.42857
2023-07-29T11:06:18.898Z,4.71429
2023-07-29T11:07:18.922Z,3.85714
2023-07-29T11:08:18.924Z,5.35714
2023-07-29T11:09:18.949Z,4.21429
2023-07-29T11:10:18.972Z,4
2023-07-29T11:11:19.017Z,4.14286
2023-07-29T11:12:19.010Z,3.71429
2023-07-29T11:13:19.023Z,4.21429
2023-07-29T11:14:19.040Z,4
2023-07-29T11:15:19.060Z,3.71429
2023-07-29T11:16:19.124Z,5
2023-07-29T11:17:19.059Z,4.14286
2023-07-29T11:18:19.065Z,4.64286
2023-07-29T11:19:19.074Z,4.85714
2023-07-29T11:20:18.122Z,5.35714
2023-07-29T11:21:18.126Z,4.85714
2023-07-29T11:22:18.189Z,4.71429
2023-07-29T11:23:18.209Z,4.85714
2023-07-29T11:24:18.217Z,4.42857
2023-07-29T11:25:18.261Z,4.14286
2023-07-29T11:26:18.266Z,4.64286
2023-07-29T11:27:18.311Z,4.21429
2023-07-29T11:28:18.312Z,4.35714
2023-07-29T11:29:18.339Z,3.85714
2023-07-29T11:30:18.400Z,4.35714
2023-07-29T11:31:18.380Z,4.14286
2023-07-29T11:32:18.430Z,5.21429
2023-07-29T11:33:18.765Z,4.5
2023-07-29T11:34:18.438Z,4.42857
2023-07-29T11:35:18.456Z,4.14286
2023-07-29T11:36:18.472Z,4
2023-07-29T11:37:18.483Z,4.64286
2023-07-29T11:38:18.498Z,4.21429
2023-07-29T11:39:18.497Z,4.71429
2023-07-29T11:40:18.510Z,4.14286
2023-07-29T11:41:18.523Z,3.71429
2023-07-29T11:42:18.534Z,3.92857
2023-07-29T11:43:18.547Z,4
2023-07-29T11:44:18.569Z,4.21429
2023-07-29T11:45:18.702Z,4.21429
2023-07-29T11:46:18.664Z,4.64286
2023-07-29T11:47:18.698Z,4.92857
2023-07-29T11:48:18.681Z,5
2023-07-29T11:49:18.694Z,4.35714
2023-07-29T11:50:18.721Z,4.14286
2023-07-29T11:51:18.754Z,4.5
2023-07-29T11:52:18.776Z,5.64286
2023-07-29T11:53:18.837Z,4.21429
2023-07-29T11:54:18.828Z,4.64286
2023-07-29T11:55:18.849Z,4.42857
2023-07-29T11:56:18.865Z,4.71429
2023-07-29T11:57:18.940Z,4.85714
2023-07-29T11:58:18.930Z,4.21429
2023-07-29T11:59:18.964Z,4.21429
2023-07-29T12:00:18.954Z,4.5
2023-07-29T12:01:19.033Z,4.64286
2023-07-29T12:02:18.981Z,4.42857
2023-07-29T12:03:19.236Z,4
2023-07-29T12:04:19.026Z,4.92857
2023-07-29T12:05:19.036Z,4.85714
2023-07-29T12:06:19.021Z,4
2023-07-29T12:07:19.012Z,4.64286
2023-07-29T12:08:19.039Z,4.35714
2023-07-29T12:09:19.078Z,4.21429
2023-07-29T12:10:18.124Z,4.42857
2023-07-29T12:11:18.183Z,5.14286
2023-07-29T12:12:18.149Z,4.21429
2023-07-29T12:13:18.177Z,4.42857
2023-07-29T12:14:18.197Z,4.42857
2023-07-29T12:15:18.226Z,4.64286
2023-07-29T12:16:18.282Z,4.64286
2023-07-29T12:17:18.316Z,6.64286
2023-07-29T12:18:18.392Z,4.21429
2023-07-29T12:19:18.310Z,4.35714
2023-07-29T12:20:18.324Z,3.92857
2023-07-29T12:21:18.348Z,5.14286
2023-07-29T12:22:18.373Z,5.21429
2023-07-29T12:23:18.386Z,4.71429
2023-07-29T12:24:18.390Z,4.71429
2023-07-29T12:25:18.404Z,4.71429
2023-07-29T12:26:18.407Z,5.92857